sensor_id;sensor_type;location;lat;lon;timestamp;temperature;humidity
33811;DHT22;20119;48.334;16.206;2023-04-29T00:00:24;11.20;99.90
33811;DHT22;20119;48.334;16.206;2023-04-29T00:02:54;11.30;99.90
33811;DHT22;20119;48.334;16.206;2023-04-29T00:05:22;11.30;99.90
33811;DHT22;20119;48.334;16.206;2023-04-29T00:07:49;11.30;99.90
33811;DHT22;20119;48.334;16.206;2023-04-29T00:10:16;11.30;99.90
33811;DHT22;20119;48.334;16.206;2023-04-29T00:12:44;11.40;99.90
33811;DHT22;20119;48.334;16.206;2023-04-29T00:15:12;11.40;99.90
33811;DHT22;20119;48.334;16.206;2023-04-29T00:17:39;11.40;99.90
33811;DHT22;20119;48.334;16.206;2023-04-29T00:20:09;11.40;99.90
33811;DHT22;20119;48.334;16.206;2023-04-29T00:22:37;11.40;99.90
33811;DHT22;20119;48.334;16.206;2023-04-29T00:25:05;11.40;99.90
33811;DHT22;20119;48.334;16.206;2023-04-29T00:27:33;11.40;99.90
33811;DHT22;20119;48.334;16.206;2023-04-29T00:30:01;11.40;99.90
33811;DHT22;20119;48.334;16.206;2023-04-29T00:32:29;11.40;99.90
33811;DHT22;20119;48.334;16.206;2023-04-29T00:34:59;11.40;99.90
33811;DHT22;20119;48.334;16.206;2023-04-29T00:37:28;11.40;99.90
33811;DHT22;20119;48.334;16.206;2023-04-29T00:39:55;11.40;99.90
33811;DHT22;20119;48.334;16.206;2023-04-29T00:42:24;11.40;99.90
33811;DHT22;20119;48.334;16.206;2023-04-29T00:44:51;11.40;99.90
33811;DHT22;20119;48.334;16.206;2023-04-29T00:47:18;11.40;99.90
33811;DHT22;20119;48.334;16.206;2023-04-29T00:49:46;11.30;99.90
33811;DHT22;20119;48.334;16.206;2023-04-29T00:52:14;11.40;99.90
33811;DHT22;20119;48.334;16.206;2023-04-29T00:54:44;11.40;99.90
33811;DHT22;20119;48.334;16.206;2023-04-29T00:57:11;11.40;99.90
33811;DHT22;20119;48.334;16.206;2023-04-29T00:59:40;11.40;99.90
33811;DHT22;20119;48.334;16.206;2023-04-29T01:02:10;11.40;99.90
33811;DHT22;20119;48.334;16.206;2023-04-29T01:04:38;11.40;99.90
33811;DHT22;20119;48.334;16.206;2023-04-29T01:07:11;11.40;99.90
33811;DHT22;20119;48.334;16.206;2023-04-29T01:10:00;11.40;99.90
33811;DHT22;20119;48.334;16.206;2023-04-29T01:12:33;11.40;99.90
33811;DHT22;20119;48.334;16.206;2023-04-29T01:15:09;11.40;99.90
33811;DHT22;20119;48.334;16.206;2023-04-29T01:17:41;11.40;99.90
33811;DHT22;20119;48.334;16.206;2023-04-29T01:20:10;11.40;99.90
33811;DHT22;20119;48.334;16.206;2023-04-29T01:22:39;11.40;99.90
33811;DHT22;20119;48.334;16.206;2023-04-29T01:25:10;11.50;99.90
33811;DHT22;20119;48.334;16.206;2023-04-29T01:27:44;11.50;99.90
33811;DHT22;20119;48.334;16.206;2023-04-29T01:30:21;11.50;99.90
33811;DHT22;20119;48.334;16.206;2023-04-29T01:32:58;11.50;99.90
33811;DHT22;20119;48.334;16.206;2023-04-29T01:35:50;11.50;99.90
33811;DHT22;20119;48.334;16.206;2023-04-29T01:38:35;11.50;99.90
33811;DHT22;20119;48.334;16.206;2023-04-29T01:41:12;11.50;99.90
33811;DHT22;20119;48.334;16.206;2023-04-29T01:43:40;11.50;99.90
33811;DHT22;20119;48.334;16.206;2023-04-29T01:46:10;11.50;99.90
33811;DHT22;20119;48.334;16.206;2023-04-29T01:48:39;11.50;99.90
33811;DHT22;20119;48.334;16.206;2023-04-29T01:51:07;11.50;99.90
33811;DHT22;20119;48.334;16.206;2023-04-29T01:53:36;11.50;99.90
33811;DHT22;20119;48.334;16.206;2023-04-29T01:56:07;11.50;99.90
33811;DHT22;20119;48.334;16.206;2023-04-29T01:58:35;11.50;99.90
33811;DHT22;20119;48.334;16.206;2023-04-29T02:01:03;11.50;99.90
33811;DHT22;20119;48.334;16.206;2023-04-29T02:03:31;11.50;99.90
33811;DHT22;20119;48.334;16.206;2023-04-29T02:06:01;11.50;99.90
33811;DHT22;20119;48.334;16.206;2023-04-29T02:08:29;11.60;99.90
33811;DHT22;20119;48.334;16.206;2023-04-29T02:10:57;11.60;99.90
33811;DHT22;20119;48.334;16.206;2023-04-29T02:13:27;11.60;99.90
33811;DHT22;20119;48.334;16.206;2023-04-29T02:15:55;11.60;99.90
33811;DHT22;20119;48.334;16.206;2023-04-29T02:18:22;11.60;99.90
33811;DHT22;20119;48.334;16.206;2023-04-29T02:20:49;11.60;99.90
33811;DHT22;20119;48.334;16.206;2023-04-29T02:23:18;11.70;99.90
33811;DHT22;20119;48.334;16.206;2023-04-29T02:25:46;11.60;99.90
33811;DHT22;20119;48.334;16.206;2023-04-29T02:28:15;11.70;99.90
33811;DHT22;20119;48.334;16.206;2023-04-29T02:30:44;11.60;99.90
33811;DHT22;20119;48.334;16.206;2023-04-29T02:33:12;11.60;99.90
33811;DHT22;20119;48.334;16.206;2023-04-29T02:35:41;11.60;99.90
33811;DHT22;20119;48.334;16.206;2023-04-29T02:38:09;11.60;99.90
33811;DHT22;20119;48.334;16.206;2023-04-29T02:40:41;11.60;99.90
33811;DHT22;20119;48.334;16.206;2023-04-29T02:43:09;11.60;99.90
33811;DHT22;20119;48.334;16.206;2023-04-29T02:45:37;11.60;99.90
33811;DHT22;20119;48.334;16.206;2023-04-29T02:48:07;11.60;99.90
33811;DHT22;20119;48.334;16.206;2023-04-29T02:50:34;11.60;99.90
33811;DHT22;20119;48.334;16.206;2023-04-29T02:53:02;11.60;99.90
33811;DHT22;20119;48.334;16.206;2023-04-29T02:55:30;11.60;99.90
33811;DHT22;20119;48.334;16.206;2023-04-29T02:57:59;11.60;99.90
33811;DHT22;20119;48.334;16.206;2023-04-29T03:00:27;11.60;99.90
33811;DHT22;20119;48.334;16.206;2023-04-29T03:02:54;11.70;99.90
33811;DHT22;20119;48.334;16.206;2023-04-29T03:05:23;11.70;99.90
33811;DHT22;20119;48.334;16.206;2023-04-29T03:07:51;11.60;99.90
33811;DHT22;20119;48.334;16.206;2023-04-29T03:10:20;11.70;99.90
33811;DHT22;20119;48.334;16.206;2023-04-29T03:12:48;11.70;99.90
33811;DHT22;20119;48.334;16.206;2023-04-29T03:15:16;11.60;99.90
33811;DHT22;20119;48.334;16.206;2023-04-29T03:17:45;11.60;99.90
33811;DHT22;20119;48.334;16.206;2023-04-29T03:20:14;11.60;99.90
33811;DHT22;20119;48.334;16.206;2023-04-29T03:22:44;11.70;99.90
33811;DHT22;20119;48.334;16.206;2023-04-29T03:25:13;11.70;99.90
33811;DHT22;20119;48.334;16.206;2023-04-29T03:27:41;11.70;99.90
33811;DHT22;20119;48.334;16.206;2023-04-29T03:30:09;11.70;99.90
33811;DHT22;20119;48.334;16.206;2023-04-29T03:32:37;11.70;99.90
33811;DHT22;20119;48.334;16.206;2023-04-29T03:35:05;11.70;99.90
33811;DHT22;20119;48.334;16.206;2023-04-29T03:37:33;11.70;99.90
33811;DHT22;20119;48.334;16.206;2023-04-29T03:40:04;11.70;99.90
33811;DHT22;20119;48.334;16.206;2023-04-29T03:42:31;11.70;99.90
33811;DHT22;20119;48.334;16.206;2023-04-29T03:44:59;11.60;99.90
33811;DHT22;20119;48.334;16.206;2023-04-29T03:47:27;11.70;99.90
33811;DHT22;20119;48.334;16.206;2023-04-29T03:49:55;11.60;99.90
33811;DHT22;20119;48.334;16.206;2023-04-29T03:52:23;11.70;99.90
33811;DHT22;20119;48.334;16.206;2023-04-29T03:54:50;11.60;99.90
33811;DHT22;20119;48.334;16.206;2023-04-29T03:57:20;11.70;99.90
33811;DHT22;20119;48.334;16.206;2023-04-29T03:59:49;11.70;99.90
33811;DHT22;20119;48.334;16.206;2023-04-29T04:02:19;11.60;99.90
33811;DHT22;20119;48.334;16.206;2023-04-29T04:04:46;11.70;99.90
33811;DHT22;20119;48.334;16.206;2023-04-29T04:07:13;11.60;99.90
33811;DHT22;20119;48.334;16.206;2023-04-29T04:09:41;11.70;99.90
33811;DHT22;20119;48.334;16.206;2023-04-29T04:12:09;11.70;99.90
33811;DHT22;20119;48.334;16.206;2023-04-29T04:14:40;11.70;99.90
33811;DHT22;20119;48.334;16.206;2023-04-29T04:17:08;11.70;99.90
33811;DHT22;20119;48.334;16.206;2023-04-29T04:19:37;11.80;99.90
33811;DHT22;20119;48.334;16.206;2023-04-29T04:22:05;11.80;99.90
33811;DHT22;20119;48.334;16.206;2023-04-29T04:24:34;11.80;99.90
33811;DHT22;20119;48.334;16.206;2023-04-29T04:27:01;11.90;99.90
33811;DHT22;20119;48.334;16.206;2023-04-29T04:29:29;11.90;99.90
33811;DHT22;20119;48.334;16.206;2023-04-29T04:31:59;11.90;99.90
33811;DHT22;20119;48.334;16.206;2023-04-29T04:34:26;11.90;99.90
33811;DHT22;20119;48.334;16.206;2023-04-29T04:36:53;11.90;99.90
33811;DHT22;20119;48.334;16.206;2023-04-29T04:39:20;11.90;99.90
33811;DHT22;20119;48.334;16.206;2023-04-29T04:41:48;12.00;99.90
33811;DHT22;20119;48.334;16.206;2023-04-29T04:44:15;12.00;99.90
33811;DHT22;20119;48.334;16.206;2023-04-29T04:46:42;11.90;99.90
33811;DHT22;20119;48.334;16.206;2023-04-29T04:49:12;12.00;99.90
33811;DHT22;20119;48.334;16.206;2023-04-29T04:51:43;12.00;99.90
33811;DHT22;20119;48.334;16.206;2023-04-29T04:54:12;12.00;99.90
33811;DHT22;20119;48.334;16.206;2023-04-29T04:56:40;12.00;99.90
33811;DHT22;20119;48.334;16.206;2023-04-29T04:59:08;12.00;99.90
33811;DHT22;20119;48.334;16.206;2023-04-29T05:01:37;12.10;99.90
33811;DHT22;20119;48.334;16.206;2023-04-29T05:04:05;12.10;99.90
33811;DHT22;20119;48.334;16.206;2023-04-29T05:06:34;12.20;99.90
33811;DHT22;20119;48.334;16.206;2023-04-29T05:09:02;12.20;99.90
33811;DHT22;20119;48.334;16.206;2023-04-29T05:11:31;12.20;99.90
33811;DHT22;20119;48.334;16.206;2023-04-29T05:14:00;12.20;99.90
33811;DHT22;20119;48.334;16.206;2023-04-29T05:16:28;12.30;99.90
33811;DHT22;20119;48.334;16.206;2023-04-29T05:18:55;12.30;99.90
33811;DHT22;20119;48.334;16.206;2023-04-29T05:21:22;12.40;99.90
33811;DHT22;20119;48.334;16.206;2023-04-29T05:23:53;12.50;99.90
33811;DHT22;20119;48.334;16.206;2023-04-29T05:26:20;12.60;99.90
33811;DHT22;20119;48.334;16.206;2023-04-29T05:28:47;12.70;99.90
33811;DHT22;20119;48.334;16.206;2023-04-29T05:31:15;12.80;99.90
33811;DHT22;20119;48.334;16.206;2023-04-29T05:33:43;12.80;99.90
33811;DHT22;20119;48.334;16.206;2023-04-29T05:36:10;12.90;99.90
33811;DHT22;20119;48.334;16.206;2023-04-29T05:38:38;12.90;99.90
33811;DHT22;20119;48.334;16.206;2023-04-29T05:41:11;13.10;99.90
33811;DHT22;20119;48.334;16.206;2023-04-29T05:43:38;13.20;99.90
33811;DHT22;20119;48.334;16.206;2023-04-29T05:46:06;13.30;99.90
33811;DHT22;20119;48.334;16.206;2023-04-29T05:48:33;13.40;99.90
33811;DHT22;20119;48.334;16.206;2023-04-29T05:51:01;13.50;99.90
33811;DHT22;20119;48.334;16.206;2023-04-29T05:53:29;13.50;99.90
33811;DHT22;20119;48.334;16.206;2023-04-29T05:55:56;13.60;99.90
33811;DHT22;20119;48.334;16.206;2023-04-29T05:58:26;13.70;99.90
33811;DHT22;20119;48.334;16.206;2023-04-29T06:00:53;13.70;99.90
33811;DHT22;20119;48.334;16.206;2023-04-29T06:03:21;14.00;99.90
33811;DHT22;20119;48.334;16.206;2023-04-29T06:05:49;14.10;99.90
33811;DHT22;20119;48.334;16.206;2023-04-29T06:08:17;14.20;99.90
33811;DHT22;20119;48.334;16.206;2023-04-29T06:10:44;14.40;99.90
33811;DHT22;20119;48.334;16.206;2023-04-29T06:13:12;14.50;99.90
33811;DHT22;20119;48.334;16.206;2023-04-29T06:15:42;14.30;99.90
33811;DHT22;20119;48.334;16.206;2023-04-29T06:18:10;14.40;99.90
33811;DHT22;20119;48.334;16.206;2023-04-29T06:20:38;14.60;99.90
33811;DHT22;20119;48.334;16.206;2023-04-29T06:23:06;14.80;99.90
33811;DHT22;20119;48.334;16.206;2023-04-29T06:25:34;15.20;99.90
33811;DHT22;20119;48.334;16.206;2023-04-29T06:28:03;15.50;99.90
33811;DHT22;20119;48.334;16.206;2023-04-29T06:30:30;16.20;99.90
33811;DHT22;20119;48.334;16.206;2023-04-29T06:32:59;16.60;99.90
33811;DHT22;20119;48.334;16.206;2023-04-29T06:35:26;16.60;99.90
33811;DHT22;20119;48.334;16.206;2023-04-29T06:37:54;17.20;99.90
33811;DHT22;20119;48.334;16.206;2023-04-29T06:40:22;17.60;99.90
33811;DHT22;20119;48.334;16.206;2023-04-29T06:42:50;17.70;99.90
33811;DHT22;20119;48.334;16.206;2023-04-29T06:45:18;17.50;99.90
33811;DHT22;20119;48.334;16.206;2023-04-29T06:47:46;17.40;99.90
33811;DHT22;20119;48.334;16.206;2023-04-29T06:50:14;17.10;99.90
33811;DHT22;20119;48.334;16.206;2023-04-29T06:52:41;17.30;99.90
33811;DHT22;20119;48.334;16.206;2023-04-29T06:55:10;17.30;99.90
33811;DHT22;20119;48.334;16.206;2023-04-29T06:57:37;17.10;99.90
33811;DHT22;20119;48.334;16.206;2023-04-29T07:00:06;16.80;99.90
33811;DHT22;20119;48.334;16.206;2023-04-29T07:02:34;16.90;99.90
33811;DHT22;20119;48.334;16.206;2023-04-29T07:05:03;17.00;99.90
33811;DHT22;20119;48.334;16.206;2023-04-29T07:07:32;17.60;99.90
33811;DHT22;20119;48.334;16.206;2023-04-29T07:10:01;17.50;99.90
33811;DHT22;20119;48.334;16.206;2023-04-29T07:12:29;17.50;99.90
33811;DHT22;20119;48.334;16.206;2023-04-29T07:14:57;17.90;99.90
33811;DHT22;20119;48.334;16.206;2023-04-29T07:17:29;18.50;99.90
33811;DHT22;20119;48.334;16.206;2023-04-29T07:19:56;18.30;99.90
33811;DHT22;20119;48.334;16.206;2023-04-29T07:22:23;19.30;99.90
33811;DHT22;20119;48.334;16.206;2023-04-29T07:24:54;19.60;99.90
33811;DHT22;20119;48.334;16.206;2023-04-29T07:27:22;19.60;99.90
33811;DHT22;20119;48.334;16.206;2023-04-29T07:29:49;18.80;99.90
33811;DHT22;20119;48.334;16.206;2023-04-29T07:32:16;19.10;99.90
33811;DHT22;20119;48.334;16.206;2023-04-29T07:34:45;19.40;99.90
33811;DHT22;20119;48.334;16.206;2023-04-29T07:37:12;19.30;99.90
33811;DHT22;20119;48.334;16.206;2023-04-29T07:39:39;20.20;99.90
33811;DHT22;20119;48.334;16.206;2023-04-29T07:42:10;19.90;99.90
33811;DHT22;20119;48.334;16.206;2023-04-29T07:44:37;20.30;99.90
33811;DHT22;20119;48.334;16.206;2023-04-29T07:47:06;20.60;99.90
33811;DHT22;20119;48.334;16.206;2023-04-29T07:49:33;20.90;99.90
33811;DHT22;20119;48.334;16.206;2023-04-29T07:52:00;20.80;99.90
33811;DHT22;20119;48.334;16.206;2023-04-29T07:54:29;21.70;99.90
33811;DHT22;20119;48.334;16.206;2023-04-29T07:56:57;21.90;99.90
33811;DHT22;20119;48.334;16.206;2023-04-29T07:59:26;21.90;99.90
33811;DHT22;20119;48.334;16.206;2023-04-29T08:01:53;21.80;99.90
33811;DHT22;20119;48.334;16.206;2023-04-29T08:04:21;22.30;99.90
33811;DHT22;20119;48.334;16.206;2023-04-29T08:06:49;22.90;99.90
33811;DHT22;20119;48.334;16.206;2023-04-29T08:09:17;22.20;99.90
33811;DHT22;20119;48.334;16.206;2023-04-29T08:11:44;22.20;99.90
33811;DHT22;20119;48.334;16.206;2023-04-29T08:14:12;23.30;99.90
33811;DHT22;20119;48.334;16.206;2023-04-29T08:16:41;23.00;99.90
33811;DHT22;20119;48.334;16.206;2023-04-29T08:19:09;22.30;99.90
33811;DHT22;20119;48.334;16.206;2023-04-29T08:21:36;22.10;99.90
33811;DHT22;20119;48.334;16.206;2023-04-29T08:24:03;22.00;99.90
33811;DHT22;20119;48.334;16.206;2023-04-29T08:26:31;21.90;99.90
33811;DHT22;20119;48.334;16.206;2023-04-29T08:28:59;22.00;99.90
33811;DHT22;20119;48.334;16.206;2023-04-29T08:31:27;22.30;99.90
33811;DHT22;20119;48.334;16.206;2023-04-29T08:33:55;22.60;99.90
33811;DHT22;20119;48.334;16.206;2023-04-29T08:36:23;23.10;99.90
33811;DHT22;20119;48.334;16.206;2023-04-29T08:38:54;23.00;99.90
33811;DHT22;20119;48.334;16.206;2023-04-29T08:41:21;21.90;99.90
33811;DHT22;20119;48.334;16.206;2023-04-29T08:43:50;21.30;99.90
33811;DHT22;20119;48.334;16.206;2023-04-29T08:46:18;21.10;99.90
33811;DHT22;20119;48.334;16.206;2023-04-29T08:48:47;20.90;99.90
33811;DHT22;20119;48.334;16.206;2023-04-29T08:51:17;20.50;99.90
33811;DHT22;20119;48.334;16.206;2023-04-29T08:53:44;19.40;99.90
33811;DHT22;20119;48.334;16.206;2023-04-29T08:56:14;18.80;99.90
33811;DHT22;20119;48.334;16.206;2023-04-29T08:58:42;18.40;99.90
33811;DHT22;20119;48.334;16.206;2023-04-29T09:01:12;17.80;99.90
33811;DHT22;20119;48.334;16.206;2023-04-29T09:03:46;17.50;99.90
33811;DHT22;20119;48.334;16.206;2023-04-29T09:06:17;17.30;99.90
33811;DHT22;20119;48.334;16.206;2023-04-29T09:08:45;17.20;99.90
33811;DHT22;20119;48.334;16.206;2023-04-29T09:11:13;17.00;99.90
33811;DHT22;20119;48.334;16.206;2023-04-29T09:13:42;16.70;99.90
33811;DHT22;20119;48.334;16.206;2023-04-29T09:16:10;16.40;99.90
33811;DHT22;20119;48.334;16.206;2023-04-29T09:18:43;16.30;99.90
33811;DHT22;20119;48.334;16.206;2023-04-29T09:21:17;16.10;99.90
33811;DHT22;20119;48.334;16.206;2023-04-29T09:23:44;16.00;99.90
33811;DHT22;20119;48.334;16.206;2023-04-29T09:26:12;16.10;99.90
33811;DHT22;20119;48.334;16.206;2023-04-29T09:28:39;16.40;99.90
33811;DHT22;20119;48.334;16.206;2023-04-29T09:31:09;16.80;99.90
33811;DHT22;20119;48.334;16.206;2023-04-29T09:33:51;16.80;99.90
33811;DHT22;20119;48.334;16.206;2023-04-29T09:36:42;17.20;99.90
33811;DHT22;20119;48.334;16.206;2023-04-29T09:39:12;17.60;99.90
33811;DHT22;20119;48.334;16.206;2023-04-29T09:41:56;17.90;99.90
33811;DHT22;20119;48.334;16.206;2023-04-29T09:44:30;18.10;99.90
33811;DHT22;20119;48.334;16.206;2023-04-29T09:46:59;18.40;99.90
33811;DHT22;20119;48.334;16.206;2023-04-29T09:49:29;19.10;99.90
33811;DHT22;20119;48.334;16.206;2023-04-29T09:51:59;19.30;99.90
33811;DHT22;20119;48.334;16.206;2023-04-29T09:54:27;19.60;99.90
33811;DHT22;20119;48.334;16.206;2023-04-29T09:56:56;19.60;99.90
33811;DHT22;20119;48.334;16.206;2023-04-29T09:59:24;19.90;99.90
33811;DHT22;20119;48.334;16.206;2023-04-29T10:01:52;20.00;99.90
33811;DHT22;20119;48.334;16.206;2023-04-29T10:04:22;20.30;99.90
33811;DHT22;20119;48.334;16.206;2023-04-29T10:06:51;20.70;99.90
33811;DHT22;20119;48.334;16.206;2023-04-29T10:09:21;20.90;99.90
33811;DHT22;20119;48.334;16.206;2023-04-29T10:11:48;20.90;99.90
33811;DHT22;20119;48.334;16.206;2023-04-29T10:14:17;20.70;99.90
33811;DHT22;20119;48.334;16.206;2023-04-29T10:16:47;20.50;99.90
33811;DHT22;20119;48.334;16.206;2023-04-29T10:19:23;20.10;99.90
33811;DHT22;20119;48.334;16.206;2023-04-29T10:21:54;20.40;99.90
33811;DHT22;20119;48.334;16.206;2023-04-29T10:24:26;20.80;99.90
33811;DHT22;20119;48.334;16.206;2023-04-29T10:26:54;20.40;99.90
33811;DHT22;20119;48.334;16.206;2023-04-29T10:29:24;20.00;99.90
33811;DHT22;20119;48.334;16.206;2023-04-29T10:31:54;20.60;99.90
33811;DHT22;20119;48.334;16.206;2023-04-29T10:34:23;20.40;99.90
33811;DHT22;20119;48.334;16.206;2023-04-29T10:36:51;20.90;99.90
33811;DHT22;20119;48.334;16.206;2023-04-29T10:39:29;20.70;99.90
33811;DHT22;20119;48.334;16.206;2023-04-29T10:42:02;20.10;99.90
33811;DHT22;20119;48.334;16.206;2023-04-29T10:44:31;20.10;99.90
33811;DHT22;20119;48.334;16.206;2023-04-29T10:47:19;20.40;99.90
33811;DHT22;20119;48.334;16.206;2023-04-29T10:50:01;20.80;99.90
33811;DHT22;20119;48.334;16.206;2023-04-29T10:52:29;21.40;99.90
33811;DHT22;20119;48.334;16.206;2023-04-29T10:55:06;21.20;99.90
33811;DHT22;20119;48.334;16.206;2023-04-29T10:57:34;20.60;99.90
33811;DHT22;20119;48.334;16.206;2023-04-29T11:00:03;20.30;99.90
33811;DHT22;20119;48.334;16.206;2023-04-29T11:02:31;20.20;99.90
33811;DHT22;20119;48.334;16.206;2023-04-29T11:05:06;20.00;99.90
33811;DHT22;20119;48.334;16.206;2023-04-29T11:07:35;19.90;99.90
33811;DHT22;20119;48.334;16.206;2023-04-29T11:10:02;19.60;99.90
33811;DHT22;20119;48.334;16.206;2023-04-29T11:12:31;19.40;99.90
33811;DHT22;20119;48.334;16.206;2023-04-29T11:14:59;19.30;99.90
33811;DHT22;20119;48.334;16.206;2023-04-29T11:17:35;19.60;99.90
33811;DHT22;20119;48.334;16.206;2023-04-29T11:20:04;19.90;99.90
33811;DHT22;20119;48.334;16.206;2023-04-29T11:22:35;19.80;99.90
33811;DHT22;20119;48.334;16.206;2023-04-29T11:25:05;19.70;99.90
33811;DHT22;20119;48.334;16.206;2023-04-29T11:27:36;19.90;99.90
33811;DHT22;20119;48.334;16.206;2023-04-29T11:30:05;19.50;99.90
33811;DHT22;20119;48.334;16.206;2023-04-29T11:32:34;19.20;99.90
33811;DHT22;20119;48.334;16.206;2023-04-29T11:35:09;19.10;99.90
33811;DHT22;20119;48.334;16.206;2023-04-29T11:37:37;18.80;99.90
33811;DHT22;20119;48.334;16.206;2023-04-29T11:40:07;18.70;99.90
33811;DHT22;20119;48.334;16.206;2023-04-29T11:42:40;18.60;99.90
33811;DHT22;20119;48.334;16.206;2023-04-29T11:45:08;18.50;99.90
33811;DHT22;20119;48.334;16.206;2023-04-29T11:47:35;18.40;99.90
33811;DHT22;20119;48.334;16.206;2023-04-29T11:50:04;18.20;99.90
33811;DHT22;20119;48.334;16.206;2023-04-29T11:52:33;18.20;99.90
33811;DHT22;20119;48.334;16.206;2023-04-29T11:55:02;18.00;99.90
33811;DHT22;20119;48.334;16.206;2023-04-29T11:57:30;17.90;99.90
33811;DHT22;20119;48.334;16.206;2023-04-29T11:59:59;17.90;99.90
33811;DHT22;20119;48.334;16.206;2023-04-29T12:02:30;18.10;99.90
33811;DHT22;20119;48.334;16.206;2023-04-29T12:04:59;18.20;99.90
33811;DHT22;20119;48.334;16.206;2023-04-29T12:07:26;18.30;99.90
33811;DHT22;20119;48.334;16.206;2023-04-29T12:09:54;18.40;99.90
33811;DHT22;20119;48.334;16.206;2023-04-29T12:12:22;18.40;99.90
33811;DHT22;20119;48.334;16.206;2023-04-29T12:14:50;18.30;99.90
33811;DHT22;20119;48.334;16.206;2023-04-29T12:17:20;17.90;99.90
33811;DHT22;20119;48.334;16.206;2023-04-29T12:19:47;17.70;99.90
33811;DHT22;20119;48.334;16.206;2023-04-29T12:22:14;17.80;99.90
33811;DHT22;20119;48.334;16.206;2023-04-29T12:24:42;17.60;99.90
33811;DHT22;20119;48.334;16.206;2023-04-29T12:27:09;17.30;99.90
33811;DHT22;20119;48.334;16.206;2023-04-29T12:29:38;17.30;99.90
33811;DHT22;20119;48.334;16.206;2023-04-29T12:32:07;17.20;99.90
33811;DHT22;20119;48.334;16.206;2023-04-29T12:34:41;17.10;99.90
33811;DHT22;20119;48.334;16.206;2023-04-29T12:37:09;16.50;99.90
33811;DHT22;20119;48.334;16.206;2023-04-29T12:39:37;15.80;99.90
33811;DHT22;20119;48.334;16.206;2023-04-29T12:42:04;15.80;99.90
33811;DHT22;20119;48.334;16.206;2023-04-29T12:44:34;15.70;99.90
33811;DHT22;20119;48.334;16.206;2023-04-29T12:47:07;15.70;99.90
33811;DHT22;20119;48.334;16.206;2023-04-29T12:49:36;15.90;99.90
33811;DHT22;20119;48.334;16.206;2023-04-29T12:52:06;16.20;99.90
33811;DHT22;20119;48.334;16.206;2023-04-29T12:54:35;16.10;99.90
33811;DHT22;20119;48.334;16.206;2023-04-29T12:57:03;16.10;99.90
33811;DHT22;20119;48.334;16.206;2023-04-29T12:59:30;16.30;99.90
33811;DHT22;20119;48.334;16.206;2023-04-29T13:01:57;16.80;99.90
33811;DHT22;20119;48.334;16.206;2023-04-29T13:04:26;16.80;99.90
33811;DHT22;20119;48.334;16.206;2023-04-29T13:06:54;16.80;99.90
33811;DHT22;20119;48.334;16.206;2023-04-29T13:09:26;16.60;99.90
33811;DHT22;20119;48.334;16.206;2023-04-29T13:11:53;16.90;99.90
33811;DHT22;20119;48.334;16.206;2023-04-29T13:14:22;17.20;99.90
33811;DHT22;20119;48.334;16.206;2023-04-29T13:16:49;17.40;99.90
33811;DHT22;20119;48.334;16.206;2023-04-29T13:19:17;17.40;99.90
33811;DHT22;20119;48.334;16.206;2023-04-29T13:21:45;17.30;99.90
33811;DHT22;20119;48.334;16.206;2023-04-29T13:24:13;17.30;99.90
33811;DHT22;20119;48.334;16.206;2023-04-29T13:26:44;17.20;99.90
33811;DHT22;20119;48.334;16.206;2023-04-29T13:29:13;17.20;99.90
33811;DHT22;20119;48.334;16.206;2023-04-29T13:31:40;17.20;99.90
33811;DHT22;20119;48.334;16.206;2023-04-29T13:34:09;17.20;99.90
33811;DHT22;20119;48.334;16.206;2023-04-29T13:36:37;17.20;99.90
33811;DHT22;20119;48.334;16.206;2023-04-29T13:39:05;17.10;99.90
33811;DHT22;20119;48.334;16.206;2023-04-29T13:41:33;17.00;99.90
33811;DHT22;20119;48.334;16.206;2023-04-29T13:44:02;17.20;99.90
33811;DHT22;20119;48.334;16.206;2023-04-29T13:46:30;17.10;99.90
33811;DHT22;20119;48.334;16.206;2023-04-29T13:48:58;16.90;99.90
33811;DHT22;20119;48.334;16.206;2023-04-29T13:51:25;16.90;99.90
33811;DHT22;20119;48.334;16.206;2023-04-29T13:53:52;16.80;99.90
33811;DHT22;20119;48.334;16.206;2023-04-29T13:56:20;16.90;99.90
33811;DHT22;20119;48.334;16.206;2023-04-29T13:58:50;16.90;99.90
33811;DHT22;20119;48.334;16.206;2023-04-29T14:01:19;16.90;99.90
33811;DHT22;20119;48.334;16.206;2023-04-29T14:03:48;17.00;99.90
33811;DHT22;20119;48.334;16.206;2023-04-29T14:06:16;17.20;99.90
33811;DHT22;20119;48.334;16.206;2023-04-29T14:08:43;17.30;99.90
33811;DHT22;20119;48.334;16.206;2023-04-29T14:11:11;17.30;99.90
33811;DHT22;20119;48.334;16.206;2023-04-29T14:13:38;17.50;99.90
33811;DHT22;20119;48.334;16.206;2023-04-29T14:16:06;17.60;99.90
33811;DHT22;20119;48.334;16.206;2023-04-29T14:18:35;17.60;99.90
33811;DHT22;20119;48.334;16.206;2023-04-29T14:21:03;17.60;99.90
33811;DHT22;20119;48.334;16.206;2023-04-29T14:23:30;17.80;99.90
33811;DHT22;20119;48.334;16.206;2023-04-29T14:25:58;18.00;99.90
33811;DHT22;20119;48.334;16.206;2023-04-29T14:28:25;18.40;99.90
33811;DHT22;20119;48.334;16.206;2023-04-29T14:30:53;18.40;99.90
33811;DHT22;20119;48.334;16.206;2023-04-29T14:33:20;18.50;99.90
33811;DHT22;20119;48.334;16.206;2023-04-29T14:35:48;18.70;99.90
33811;DHT22;20119;48.334;16.206;2023-04-29T14:38:16;18.70;99.90
33811;DHT22;20119;48.334;16.206;2023-04-29T14:40:43;18.90;99.90
33811;DHT22;20119;48.334;16.206;2023-04-29T14:43:11;18.50;99.90
33811;DHT22;20119;48.334;16.206;2023-04-29T14:45:38;18.70;99.90
33811;DHT22;20119;48.334;16.206;2023-04-29T14:48:06;19.10;99.90
33811;DHT22;20119;48.334;16.206;2023-04-29T14:50:34;19.30;99.90
33811;DHT22;20119;48.334;16.206;2023-04-29T14:53:03;19.30;99.90
33811;DHT22;20119;48.334;16.206;2023-04-29T14:55:32;19.60;99.90
33811;DHT22;20119;48.334;16.206;2023-04-29T14:58:00;19.70;99.90
33811;DHT22;20119;48.334;16.206;2023-04-29T15:00:30;19.70;99.90
33811;DHT22;20119;48.334;16.206;2023-04-29T15:02:57;19.20;99.90
33811;DHT22;20119;48.334;16.206;2023-04-29T15:05:24;18.60;99.90
33811;DHT22;20119;48.334;16.206;2023-04-29T15:07:52;17.60;99.90
33811;DHT22;20119;48.334;16.206;2023-04-29T15:10:20;16.90;99.90
33811;DHT22;20119;48.334;16.206;2023-04-29T15:12:48;16.10;99.90
33811;DHT22;20119;48.334;16.206;2023-04-29T15:15:17;15.50;99.90
33811;DHT22;20119;48.334;16.206;2023-04-29T15:17:45;15.30;99.90
33811;DHT22;20119;48.334;16.206;2023-04-29T15:20:13;14.90;99.90
33811;DHT22;20119;48.334;16.206;2023-04-29T15:22:41;14.90;99.90
33811;DHT22;20119;48.334;16.206;2023-04-29T15:25:09;15.00;99.90